Crestview, FL

12:38 PM CST on February 12, 2016 (GMT -0600)
Sikes | | Change Station
CLOSE
Current Station
Airport
Location: Crestview,
Elevation: 213 ft
Nearby Weather Stations

Elev 213 ft 30.78 °N, 86.52 °W | Updated 45 minutes ago

Clear
Clear
72 °F
Feels Like 72 °F
N
12
Wind Variable Wind from WSW
Gusts 20 mph

Today
High -- | Low -- °F
--% Chance of Precip.
Yesterday
High -- | Low -- °F
Precip. -- in
Pressure 30.18 in
Visibility 7.0 miles
Clouds Clear
Dew Point 51 °F
Humidity 48%
Rainfall 0.00 in
Snow Depth Not available.
6:29 AM 5:31 PM
Waxing Crescent, 22% visible
METAR KCEW 121753Z AUTO 25010G17KT 7SM CLR 22/11 A3019 RMK AO2 SLP219 T02220106 10228 20128 58010
Pressure 30.18 in
Visibility 7.0 miles
Clouds Clear
Dew Point 51 °F
Humidity 48%
Rainfall 0.00 in
Snow Depth Not available.
6:29 AM 5:31 PM
Waxing Crescent, 22% visible
METAR KCEW 121753Z AUTO 25010G17KT 7SM CLR 22/11 A3019 RMK AO2 SLP219 T02220106 10228 20128 58010

10-Day Weather Forecast

Almanac

Astronomy

Feb. 12, 2016 Rise Set
Actual Time
Civil Twilight
Nautical Twilight
Astronomical Twilight
Moon
Length of Visible Light
Length of Day
Tomorrow will be .
, % of the Moon is Illuminated

Today's Extremes

State Highs State Lows

Community

WunderPhotos

Upload Photos

1,892,366 photos uploaded!

WunderBlog® & News

Nearby

Air Quality

  Air Quality AQ Index Pollutant
Not available.

Snow Depth

Station Depth Elevation

Earthquake Activity

City Distance Mag. Time & Date
Minimum magnitude displayed is 2.5.

Coastal Water Temperatures

Place Temperature

Stations

Nearby Weather Stations

Station Location Temp. Windchill Dew Point Humidity Wind Precip. Elev Updated Type
                   

Watches & Warnings

There are currently no watches in effect.